KBLV

Scott AFB/Midamerica Airport

Belleville, Illinois, USA
METAR KBLV 172056Z AUTO 19007KT 10SM FEW027 11/05 A3000 RMK AO2 SLP164 T01130050 55019 $
Observed Flight Rules
Dec-17 @ 20:56 UTC (19 minutes ago) Visual Flight Rules
Wind Visibility Clouds
190° at 7 knots 10 miles
  • Few at 2,700' AGL
Temperatures Readings
Current 11°C / 52°F
Dewpoint 5°C / 41°F
Humidity 67%
Altimeter 30" Hg
Pressure 1016.4 hPa
Elevation 138
METAR KBLV 172056Z AUTO 19007KT 10SM FEW027 11/05 A3000 RMK AO2 SLP164 T01130050 55019 $
Observed Flight Rules
Dec-17 @ 20:56 UTC
(19 minutes ago)
VFR
Wind Visibility
190° at 7 knots 10 miles
Clouds
  • Few at 2,700' AGL
Temperature Dewpoint
11°C / 52°F 5°C / 41°F
Humidity Altimeter Pressure
67% 30" Hg 1016.4 hPa